WetterOnline ( https://www.wetteronline.ch )

Wetter aktuell Tittling

Aktuelles Wetter: Fürstenzell (480m)

6-stündlich | Neueste Meldungen
Ortszeit Temperatur Wetter
Di, 02.06. 20:00 20.7° C wolkenlos
Di, 02.06. 14:00 20.5° C bewölkt
Di, 02.06. 8:00 13.3° C wolkenlos
Di, 02.06. 2:00 12.8° C wolkenlos
Mo, 01.06. 20:00 20.4° C leicht bewölkt
Mo, 01.06. 14:00 19.4° C fast wolkenlos
Mo, 01.06. 8:00 8.9° C bedeckt
Mo, 01.06. 2:00 8.5° C leicht bewölkt
Ortszeit Temperatur Wetter
Di, 02.06. 20:30 19.9° C wolkenlos
Di, 02.06. 20:20 19.9° C wolkenlos
Di, 02.06. 20:10 20.5° C wolkenlos
Di, 02.06. 20:00 20.7° C wolkenlos
Di, 02.06. 19:50 20.7° C wolkenlos
Di, 02.06. 19:40 20.9° C leicht bewölkt
Di, 02.06. 19:30 21.0° C leicht bewölkt
Di, 02.06. 19:00 20.2° C leicht bewölkt
Di, 02.06. 18:30 20.1° C wolkig
Di, 02.06. 18:00 20.9° C leicht bewölkt
Di, 02.06. 17:30 21.4° C bewölkt
Ortszeit Relative Feuchte Sichtweite
Di, 02.06. 20:00 42% 65 km
Di, 02.06. 14:00 40% 65 km
Di, 02.06. 8:00 68% >70 km
Di, 02.06. 2:00 71% 60 km
Mo, 01.06. 20:00 45% >70 km
Mo, 01.06. 14:00 55% >70 km
Mo, 01.06. 8:00 100% 4.4 km
Mo, 01.06. 2:00 100% 1.5 km
Ortszeit Relative Feuchte Sichtweite
Di, 02.06. 20:30 47% >70 km
Di, 02.06. 20:20 47% -
Di, 02.06. 20:10 43% -
Di, 02.06. 20:00 42% 65 km
Di, 02.06. 19:50 42% -
Di, 02.06. 19:40 42% -
Di, 02.06. 19:30 44% >70 km
Di, 02.06. 19:00 46% 50 km
Di, 02.06. 18:30 47% 60 km
Di, 02.06. 18:00 43% >70 km
Di, 02.06. 17:30 44% 50 km
Ortszeit Niederschlagsmenge Niederschlagsart
Di, 02.06. 20:00 0.0 l/m2 in 12 Std. -
Di, 02.06. 14:00 0.0 l/m2 in 6 Std. -
Di, 02.06. 8:00 0.1 l/m2 in 12 Std. Sprühregen
Di, 02.06. 2:00 0.0 l/m2 in 6 Std. -
Mo, 01.06. 20:00 0.0 l/m2 in 12 Std. -
Mo, 01.06. 14:00 0.0 l/m2 in 6 Std. -
Mo, 01.06. 8:00 1 l/m2 in 12 Std. -
Mo, 01.06. 2:00 1 l/m2 in 6 Std. Regen
Ortszeit Niederschlagsmenge Niederschlagsart
Di, 02.06. 20:30 0.0 l/m2 in 1 Std. -
Di, 02.06. 20:20 keine Meldung -
Di, 02.06. 20:10 keine Meldung -
Di, 02.06. 20:00 0.0 l/m2 in 1 Std. -
Di, 02.06. 19:50 keine Meldung -
Di, 02.06. 19:40 keine Meldung -
Di, 02.06. 19:30 0.0 l/m2 in 1 Std. -
Di, 02.06. 19:00 0.0 l/m2 in 1 Std. -
Di, 02.06. 18:30 0.0 l/m2 in 1 Std. -
Di, 02.06. 18:00 0.0 l/m2 in 1 Std. -
Di, 02.06. 17:30 0.0 l/m2 in 1 Std. -
Ortszeit Stärke Spitze Richtung
km/h Bft. km/h Grad Sektor
Di, 02.06. 20:00 6 1 26 260° W
Di, 02.06. 14:00 11 2 25 310° NW
Di, 02.06. 8:00 13 3 19 40° NO
Di, 02.06. 2:00 11 2 18 20° N
Mo, 01.06. 20:00 6 1 19 50° NO
Mo, 01.06. 14:00 4 1 14 240° SW
Mo, 01.06. 8:00 2 1 7 340° N
Mo, 01.06. 2:00 4 1 14 200° S
Ortszeit Stärke Spitze Richtung
km/h Bft. km/h Grad Sektor
Di, 02.06. 20:30 2 1 6 260° W
Di, 02.06. 20:20 2 1 - 260° W
Di, 02.06. 20:10 4 1 - 280° W
Di, 02.06. 20:00 6 1 15 260° W
Di, 02.06. 19:50 6 1 - 260° W
Di, 02.06. 19:40 7 2 - 260° W
Di, 02.06. 19:30 7 2 14 260° W
Di, 02.06. 19:00 14 3 25 280° W
Di, 02.06. 18:30 7 2 14 260° W
Di, 02.06. 18:00 7 2 22 280° W
Di, 02.06. 17:30 7 2 22 310° NW
Ortszeit Untergrenze Bedeckung Gattung
total tief tief mittel hoch
Di, 02.06. 20:00 - 0/8 0/8 - - -
Di, 02.06. 14:00 2100 m 7/8 7/8 - - -
Di, 02.06. 8:00 - 0/8 0/8 - - -
Di, 02.06. 2:00 - 0/8 0/8 - - -
Mo, 01.06. 20:00 2100 m 2/8 2/8 - - -
Mo, 01.06. 14:00 1080 m 1/8 1/8 - - -
Mo, 01.06. 8:00 60 m 8/8 8/8 - - -
Mo, 01.06. 2:00 <30 m 3/8 0/8 - - -
Ortszeit Bedeckungsgrad in Achtel und Wolkenuntergrenze
Di, 02.06. 20:30 keine Wolken
Di, 02.06. 20:20 keine Wolken
Di, 02.06. 20:10 keine Wolken
Di, 02.06. 20:00 keine Wolken
Di, 02.06. 19:50 keine Wolken
Di, 02.06. 19:40 2(3300m)
Di, 02.06. 19:30 4(3300m)
Di, 02.06. 19:00 3(2100m) 3(3000m)
Di, 02.06. 18:30 4(2700m) 5(3300m) 6(3300m)
Di, 02.06. 18:00 2(1800m) 4(3300m)
Di, 02.06. 17:30 6(1800m) 7(2400m) 7(3300m)
Ortszeit Luftdruck NN (hPa) Tendenz (hPa in 3 Std.)
Di, 02.06. 20:00 1012 - 1,7
Di, 02.06. 14:00 1015 - 1,6
Di, 02.06. 8:00 1019 + 0,3
Di, 02.06. 2:00 1019 - 0,4
Mo, 01.06. 20:00 1017 - 0,6
Mo, 01.06. 14:00 1019 - 1,1
Mo, 01.06. 8:00 1023 + 0,7
Mo, 01.06. 2:00 1023 - 0,4
Ortszeit Luftdruck NN (hPa) Tendenz (hPa in 3 Std.)
Di, 02.06. 20:30 1012 - 1,5
Di, 02.06. 20:20 1012 keine Meldung
Di, 02.06. 20:10 1012 keine Meldung
Di, 02.06. 20:00 1012 - 1,7
Di, 02.06. 19:50 1012 keine Meldung
Di, 02.06. 19:40 1012 keine Meldung
Di, 02.06. 19:30 1012 - 1,7
Di, 02.06. 19:00 1012 - 1,8
Di, 02.06. 18:30 1012 - 1,9
Di, 02.06. 18:00 1013 - 1,9
Di, 02.06. 17:30 1013 - 1,8
Ortszeit Schneehöhe (cm)
Di, 02.06. 20:00 -
Di, 02.06. 14:00 -
Di, 02.06. 8:00 -
Di, 02.06. 2:00 -
Mo, 01.06. 20:00 -
Mo, 01.06. 14:00 -
Mo, 01.06. 8:00 -
Mo, 01.06. 2:00 -
Ortszeit Schneehöhe (cm)
Di, 02.06. 20:30 -
Di, 02.06. 20:20 -
Di, 02.06. 20:10 -
Di, 02.06. 20:00 -
Di, 02.06. 19:50 -
Di, 02.06. 19:40 -
Di, 02.06. 19:30 -
Di, 02.06. 19:00 -
Di, 02.06. 18:30 -
Di, 02.06. 18:00 -
Di, 02.06. 17:30 -
Link zu dieser Seite / Seite empfehlen

Das Wetter in ...